Time;durP1;ratioP1;P1;durP2;ratioP2;P2;SDS_P1;SDS_P2;PMS_P1;PMS_P2;Temp;Humidity;BMP_temperature;BMP_pressure;BME280_temperature;BME280_humidity;BME280_pressure;Samples;Min_cycle;Max_cycle;Signal;HPM_P1;HPM_P2
2022/07/11 00:02:05;;;;;;;;;;;15.60;99.90;;;;;;5057094;28;19935;-67
2022/07/11 00:04:31;;;;;;;;;;;15.60;99.90;;;;;;5057084;28;19958;-67
2022/07/11 00:06:57;;;;;;;;;;;15.60;99.90;;;;;;5056959;28;19998;-66
2022/07/11 00:09:22;;;;;;;;;;;15.50;99.90;;;;;;5056987;28;20021;-66
2022/07/11 00:11:48;;;;;;;;;;;15.50;99.90;;;;;;5056588;28;20402;-67
2022/07/11 00:14:14;;;;;;;;;;;15.60;99.90;;;;;;5056666;28;19958;-67
2022/07/11 00:16:39;;;;;;;;;;;15.60;99.90;;;;;;5056852;28;20272;-67
2022/07/11 00:19:05;;;;;;;;;;;15.60;99.90;;;;;;5056512;28;19909;-67
2022/07/11 00:21:31;;;;;;;;;;;15.60;99.90;;;;;;5056711;28;19909;-67
2022/07/11 00:23:57;;;;;;;;;;;15.60;99.90;;;;;;5056702;28;20260;-66
2022/07/11 00:26:22;;;;;;;;;;;15.70;99.90;;;;;;5056308;28;19912;-66
2022/07/11 00:28:48;;;;;;;;;;;15.70;99.90;;;;;;5056617;28;19908;-66
2022/07/11 00:31:13;;;;;;;;;;;15.70;99.90;;;;;;5056266;28;19935;-66
2022/07/11 00:33:39;;;;;;;;;;;15.70;99.90;;;;;;5056267;28;19915;-66
2022/07/11 00:36:04;;;;;;;;;;;15.70;99.90;;;;;;5056217;28;19955;-67
2022/07/11 00:38:30;;;;;;;;;;;15.70;99.90;;;;;;5056216;28;19912;-67
2022/07/11 00:40:55;;;;;;;;;;;15.70;99.90;;;;;;5056113;28;20330;-67
2022/07/11 00:43:31;;;;;;;;;;;15.70;99.90;;;;;;5056335;28;19999;-67
2022/07/11 00:45:56;;;;;;;;;;;15.80;99.90;;;;;;5056050;28;20464;-67
2022/07/11 00:48:22;;;;;;;;;;;15.70;99.90;;;;;;5055998;28;19913;-66
2022/07/11 00:50:47;;;;;;;;;;;15.70;99.90;;;;;;5054781;28;20003;-66
2022/07/11 00:53:13;;;;;;;;;;;15.70;99.90;;;;;;5055892;28;19909;-66
2022/07/11 00:55:40;;;;;;;;;;;15.70;99.90;;;;;;5056094;28;19909;-66
2022/07/11 00:58:05;;;;;;;;;;;15.70;99.90;;;;;;5055834;28;20286;-67
2022/07/11 01:00:31;;;;;;;;;;;15.70;99.90;;;;;;5056025;28;19909;-67
2022/07/11 01:02:56;;;;;;;;;;;15.70;99.90;;;;;;5055735;28;19916;-67
2022/07/11 01:05:22;;;;;;;;;;;15.70;99.90;;;;;;5055726;28;19920;-66
2022/07/11 01:07:47;;;;;;;;;;;15.70;99.90;;;;;;5055888;28;19963;-66
2022/07/11 01:10:13;;;;;;;;;;;15.70;99.90;;;;;;5055746;28;19990;-66
2022/07/11 01:12:38;;;;;;;;;;;15.60;99.90;;;;;;5055540;28;19916;-66
2022/07/11 01:15:05;;;;;;;;;;;15.60;99.90;;;;;;5055762;28;20027;-66
2022/07/11 01:17:31;;;;;;;;;;;15.60;99.90;;;;;;5055732;28;20417;-66
2022/07/11 01:19:56;;;;;;;;;;;15.50;99.90;;;;;;5055646;28;19909;-67
2022/07/11 01:22:23;;;;;;;;;;;15.50;99.90;;;;;;5055602;28;19916;-66
2022/07/11 01:24:49;;;;;;;;;;;15.50;99.90;;;;;;5055323;28;19947;-67
2022/07/11 01:27:15;;;;;;;;;;;15.40;99.90;;;;;;5055263;28;19909;-66
2022/07/11 01:29:40;;;;;;;;;;;15.30;99.90;;;;;;5055519;28;19909;-66
2022/07/11 01:32:07;;;;;;;;;;;15.20;99.90;;;;;;5055086;28;19912;-67
2022/07/11 01:34:33;;;;;;;;;;;15.20;99.90;;;;;;5055346;28;20398;-66
2022/07/11 01:36:59;;;;;;;;;;;15.20;99.90;;;;;;5055320;28;19916;-66
2022/07/11 01:39:24;;;;;;;;;;;15.20;99.90;;;;;;5055034;28;19909;-66
2022/07/11 01:41:50;;;;;;;;;;;15.20;99.90;;;;;;5055249;28;19909;-66
2022/07/11 01:44:15;;;;;;;;;;;15.20;99.90;;;;;;5055005;28;20371;-67
2022/07/11 01:46:41;;;;;;;;;;;15.20;99.90;;;;;;5055177;28;19909;-66
2022/07/11 01:49:06;;;;;;;;;;;15.20;99.90;;;;;;5054640;28;19923;-66
2022/07/11 01:51:32;;;;;;;;;;;15.20;99.90;;;;;;5054699;28;19917;-66
2022/07/11 01:53:57;;;;;;;;;;;15.20;99.90;;;;;;5055009;28;19951;-66
2022/07/11 01:56:23;;;;;;;;;;;15.20;99.90;;;;;;5054916;28;19909;-67
2022/07/11 01:58:48;;;;;;;;;;;15.20;99.90;;;;;;5054927;28;20363;-66
2022/07/11 02:01:14;;;;;;;;;;;15.30;99.90;;;;;;5054882;28;19916;-66
2022/07/11 02:03:40;;;;;;;;;;;15.40;99.90;;;;;;5036617;28;19908;-67
2022/07/11 02:06:06;;;;;;;;;;;15.30;99.90;;;;;;5054764;28;19909;-66
2022/07/11 02:08:31;;;;;;;;;;;15.40;99.90;;;;;;5054683;28;19996;-67
2022/07/11 02:10:56;;;;;;;;;;;15.40;99.90;;;;;;5054279;28;20371;-67
2022/07/11 02:13:23;;;;;;;;;;;15.40;99.90;;;;;;5054368;28;20394;-67
2022/07/11 02:15:50;;;;;;;;;;;15.40;99.90;;;;;;5054618;28;20335;-66
2022/07/11 02:18:17;;;;;;;;;;;15.40;99.90;;;;;;5054304;28;19916;-67
2022/07/11 02:20:45;;;;;;;;;;;15.40;99.90;;;;;;5036767;28;19919;-66
2022/07/11 02:23:12;;;;;;;;;;;15.40;99.90;;;;;;5054520;28;20355;-66
2022/07/11 02:25:38;;;;;;;;;;;15.40;99.90;;;;;;5054355;28;20372;-66
2022/07/11 02:28:04;;;;;;;;;;;15.40;99.90;;;;;;5054331;28;19909;-66
2022/07/11 02:30:35;;;;;;;;;;;15.40;99.90;;;;;;5053978;28;19919;-67
2022/07/11 02:33:00;;;;;;;;;;;15.40;99.90;;;;;;5054271;28;19915;-67
2022/07/11 02:35:26;;;;;;;;;;;15.50;99.90;;;;;;5054258;28;20326;-68
2022/07/11 02:37:52;;;;;;;;;;;15.50;99.90;;;;;;5054185;28;20367;-67
2022/07/11 02:40:17;;;;;;;;;;;15.50;99.90;;;;;;5054178;28;19908;-67
2022/07/11 02:42:43;;;;;;;;;;;15.50;99.90;;;;;;5053828;28;20314;-67
2022/07/11 02:45:09;;;;;;;;;;;15.50;99.90;;;;;;5035999;28;19935;-67
2022/07/11 02:47:35;;;;;;;;;;;15.50;99.90;;;;;;5053841;28;19948;-67
2022/07/11 02:50:01;;;;;;;;;;;15.50;99.90;;;;;;5053509;28;19921;-67
2022/07/11 02:52:27;;;;;;;;;;;15.40;99.90;;;;;;5053744;28;19909;-67
2022/07/11 02:54:52;;;;;;;;;;;15.40;99.90;;;;;;5053694;28;19923;-67
2022/07/11 02:57:18;;;;;;;;;;;15.40;99.90;;;;;;5053928;28;19958;-67
2022/07/11 02:59:43;;;;;;;;;;;15.50;99.90;;;;;;5053825;28;19916;-67
2022/07/11 03:02:08;;;;;;;;;;;15.50;99.90;;;;;;5053596;28;19909;-67
2022/07/11 03:04:34;;;;;;;;;;;15.50;99.90;;;;;;5053591;28;20315;-67
2022/07/11 03:07:00;;;;;;;;;;;15.40;99.90;;;;;;5053549;28;19909;-67
2022/07/11 03:09:25;;;;;;;;;;;15.40;99.90;;;;;;5035617;28;19952;-67
2022/07/11 03:11:52;;;;;;;;;;;15.40;99.90;;;;;;5053688;28;19956;-67
2022/07/11 03:14:18;;;;;;;;;;;15.40;99.90;;;;;;5053162;28;19978;-67
2022/07/11 03:16:43;;;;;;;;;;;15.40;99.90;;;;;;5053722;28;19913;-67
2022/07/11 03:19:09;;;;;;;;;;;15.50;99.90;;;;;;5035683;28;19945;-67
2022/07/11 03:21:34;;;;;;;;;;;15.40;99.90;;;;;;5053398;28;19909;-67
2022/07/11 03:24:00;;;;;;;;;;;15.40;99.90;;;;;;5053383;28;19962;-67
2022/07/11 03:26:25;;;;;;;;;;;15.40;99.90;;;;;;5053600;28;19952;-67
2022/07/11 03:28:51;;;;;;;;;;;15.40;99.90;;;;;;5053638;28;19995;-66
2022/07/11 03:31:16;;;;;;;;;;;15.50;99.90;;;;;;5053270;28;19913;-67
2022/07/11 03:33:42;;;;;;;;;;;15.40;99.90;;;;;;5053585;28;20406;-66
2022/07/11 03:36:07;;;;;;;;;;;15.40;99.90;;;;;;5053567;28;19992;-66
2022/07/11 03:38:33;;;;;;;;;;;15.40;99.90;;;;;;5053240;28;19913;-66
2022/07/11 03:40:59;;;;;;;;;;;15.40;99.90;;;;;;5053507;28;19909;-66
2022/07/11 03:43:24;;;;;;;;;;;15.40;99.90;;;;;;5053193;28;20363;-66
2022/07/11 03:45:50;;;;;;;;;;;15.40;99.90;;;;;;5053220;28;20005;-66
2022/07/11 03:48:15;;;;;;;;;;;15.50;99.90;;;;;;5053149;28;19909;-66
2022/07/11 03:50:41;;;;;;;;;;;15.40;99.90;;;;;;5052925;28;20015;-66
2022/07/11 03:53:06;;;;;;;;;;;15.50;99.90;;;;;;5053363;28;19956;-66
2022/07/11 03:55:32;;;;;;;;;;;15.50;99.90;;;;;;5053379;28;20008;-67
2022/07/11 03:57:58;;;;;;;;;;;15.50;99.90;;;;;;5053324;28;19909;-66
2022/07/11 04:00:23;;;;;;;;;;;15.50;99.90;;;;;;5053285;28;19915;-66
2022/07/11 04:02:50;;;;;;;;;;;15.50;99.90;;;;;;5053108;28;19958;-66
2022/07/11 04:05:15;;;;;;;;;;;15.50;99.90;;;;;;5053274;28;19959;-66
2022/07/11 04:07:42;;;;;;;;;;;15.60;99.90;;;;;;5053199;28;19913;-66
2022/07/11 04:10:08;;;;;;;;;;;15.60;99.90;;;;;;5053090;28;19913;-66
2022/07/11 04:12:34;;;;;;;;;;;15.60;99.90;;;;;;5053207;28;20367;-66
2022/07/11 04:14:59;;;;;;;;;;;15.60;99.90;;;;;;5052979;28;19916;-66
2022/07/11 04:17:26;;;;;;;;;;;15.60;99.90;;;;;;5052875;28;19909;-67
2022/07/11 04:19:52;;;;;;;;;;;15.60;99.90;;;;;;5052844;28;19909;-66
2022/07/11 04:22:17;;;;;;;;;;;15.70;99.90;;;;;;5052921;28;20344;-67
2022/07/11 04:24:43;;;;;;;;;;;15.70;99.90;;;;;;5053105;28;19909;-67
2022/07/11 04:27:08;;;;;;;;;;;15.70;99.90;;;;;;5055381;28;19908;-66
2022/07/11 04:29:34;;;;;;;;;;;15.70;99.90;;;;;;5056309;28;19915;-67
2022/07/11 04:31:59;;;;;;;;;;;15.70;99.90;;;;;;5055736;28;19916;-66
2022/07/11 04:34:25;;;;;;;;;;;15.70;99.90;;;;;;5055727;28;20380;-66
2022/07/11 04:36:50;;;;;;;;;;;15.80;99.90;;;;;;5047916;28;20004;-66
2022/07/11 04:39:16;;;;;;;;;;;15.70;99.90;;;;;;5044992;28;20267;-67
2022/07/11 04:41:42;;;;;;;;;;;15.80;99.90;;;;;;5052672;28;19912;-67
2022/07/11 04:44:07;;;;;;;;;;;15.80;99.90;;;;;;5056342;28;19909;-66
2022/07/11 04:46:33;;;;;;;;;;;15.80;99.90;;;;;;5056054;28;19916;-67
2022/07/11 04:48:58;;;;;;;;;;;15.90;99.90;;;;;;5055766;28;20493;-67
2022/07/11 04:51:24;;;;;;;;;;;15.90;99.90;;;;;;5054887;28;19917;-67
2022/07/11 04:53:50;;;;;;;;;;;15.90;99.90;;;;;;5055615;28;19912;-67
2022/07/11 04:56:15;;;;;;;;;;;15.90;99.90;;;;;;5055084;28;19913;-67
2022/07/11 04:58:41;;;;;;;;;;;15.90;99.90;;;;;;5055518;28;19916;-66
2022/07/11 05:01:06;;;;;;;;;;;16.00;99.90;;;;;;5037912;28;19909;-67
2022/07/11 05:03:32;;;;;;;;;;;16.00;99.90;;;;;;5055201;28;19916;-66
2022/07/11 05:05:57;;;;;;;;;;;16.00;99.90;;;;;;5054705;28;19913;-67
2022/07/11 05:08:23;;;;;;;;;;;16.10;99.90;;;;;;5055301;28;19916;-66
2022/07/11 05:10:48;;;;;;;;;;;16.10;99.90;;;;;;5055375;28;19917;-66
2022/07/11 05:13:14;;;;;;;;;;;16.10;99.90;;;;;;5055548;28;19913;-66
2022/07/11 05:15:39;;;;;;;;;;;16.10;99.90;;;;;;5055455;28;20287;-67
2022/07/11 05:18:05;;;;;;;;;;;16.10;99.90;;;;;;5055378;28;19959;-67
2022/07/11 05:20:31;;;;;;;;;;;16.10;99.90;;;;;;5055459;28;19967;-66
2022/07/11 05:22:56;;;;;;;;;;;16.20;99.90;;;;;;5055288;28;19948;-67
2022/07/11 05:25:22;;;;;;;;;;;16.20;99.90;;;;;;5055309;28;19962;-66
2022/07/11 05:27:48;;;;;;;;;;;16.20;99.90;;;;;;5037521;28;19956;-66
2022/07/11 05:30:13;;;;;;;;;;;16.30;99.90;;;;;;5043429;28;19913;-67
2022/07/11 05:32:39;;;;;;;;;;;16.30;99.90;;;;;;5041921;28;19919;-67
2022/07/11 05:35:04;;;;;;;;;;;16.30;99.90;;;;;;5055052;28;19994;-66
2022/07/11 05:37:30;;;;;;;;;;;16.40;99.90;;;;;;5054405;28;20350;-67
2022/07/11 05:39:56;;;;;;;;;;;16.40;99.90;;;;;;5054607;28;20318;-66
2022/07/11 05:42:21;;;;;;;;;;;16.40;99.90;;;;;;5054692;28;19909;-67
2022/07/11 05:44:48;;;;;;;;;;;16.30;99.90;;;;;;5054340;28;19920;-67
2022/07/11 05:47:14;;;;;;;;;;;16.40;99.90;;;;;;5067165;28;19947;-66
2022/07/11 05:49:39;;;;;;;;;;;16.30;99.90;;;;;;5071899;28;19920;-67
2022/07/11 05:52:05;;;;;;;;;;;16.40;99.90;;;;;;5059179;28;20016;-66
2022/07/11 05:54:30;;;;;;;;;;;16.50;99.90;;;;;;5052703;28;19916;-66
2022/07/11 05:56:56;;;;;;;;;;;16.50;99.90;;;;;;5061379;28;19913;-66
2022/07/11 05:59:21;;;;;;;;;;;16.50;99.90;;;;;;5074416;28;20007;-66
2022/07/11 06:01:47;;;;;;;;;;;16.50;99.90;;;;;;5062192;28;19999;-67
2022/07/11 06:04:12;;;;;;;;;;;16.60;99.90;;;;;;5054005;28;19956;-66
2022/07/11 06:06:38;;;;;;;;;;;16.50;99.90;;;;;;5049640;28;19909;-66
2022/07/11 06:09:04;;;;;;;;;;;16.60;99.90;;;;;;5061863;28;19917;-67
2022/07/11 06:11:29;;;;;;;;;;;16.60;99.90;;;;;;5056745;28;19917;-66
2022/07/11 06:13:55;;;;;;;;;;;16.60;99.90;;;;;;5065416;28;20007;-66
2022/07/11 06:16:20;;;;;;;;;;;16.50;99.90;;;;;;5061668;28;19916;-67
2022/07/11 06:18:46;;;;;;;;;;;16.50;99.90;;;;;;5054142;28;19912;-65
2022/07/11 06:21:12;;;;;;;;;;;16.40;99.90;;;;;;5053535;28;20362;-65
2022/07/11 06:23:37;;;;;;;;;;;16.30;99.90;;;;;;5054092;28;19924;-65
2022/07/11 06:26:03;;;;;;;;;;;16.20;99.90;;;;;;5053683;28;19920;-65
2022/07/11 06:28:29;;;;;;;;;;;16.20;99.90;;;;;;5054018;28;19920;-65
2022/07/11 06:30:54;;;;;;;;;;;16.20;99.90;;;;;;5053284;28;19921;-66
2022/07/11 06:33:20;;;;;;;;;;;16.20;99.90;;;;;;5053430;28;19951;-67
2022/07/11 06:35:46;;;;;;;;;;;16.20;99.90;;;;;;5054144;28;19909;-66
2022/07/11 06:38:12;;;;;;;;;;;16.20;99.90;;;;;;5053250;28;19939;-66
2022/07/11 06:40:37;;;;;;;;;;;16.30;99.90;;;;;;5053340;28;19920;-66
2022/07/11 06:43:03;;;;;;;;;;;16.20;99.90;;;;;;5053568;28;19920;-67
2022/07/11 06:45:28;;;;;;;;;;;16.20;99.90;;;;;;5053326;28;19917;-66
2022/07/11 06:47:54;;;;;;;;;;;16.30;99.90;;;;;;5049686;28;19979;-66
2022/07/11 06:50:20;;;;;;;;;;;16.20;99.90;;;;;;5043618;28;20041;-66
2022/07/11 06:52:46;;;;;;;;;;;16.20;99.90;;;;;;5046576;28;19928;-66
2022/07/11 06:55:12;;;;;;;;;;;16.20;99.90;;;;;;5053557;28;20359;-66
2022/07/11 06:57:38;;;;;;;;;;;16.30;99.90;;;;;;5053966;28;19923;-66
2022/07/11 07:00:05;;;;;;;;;;;16.30;99.90;;;;;;5049357;28;19913;-66
2022/07/11 07:02:30;;;;;;;;;;;16.30;99.90;;;;;;5053039;28;19989;-67
2022/07/11 07:04:58;;;;;;;;;;;16.30;99.90;;;;;;5053390;28;19940;-66
2022/07/11 07:07:24;;;;;;;;;;;16.30;99.90;;;;;;5053363;28;19912;-66
2022/07/11 07:09:49;;;;;;;;;;;16.30;99.90;;;;;;5053668;28;20367;-65
2022/07/11 07:12:15;;;;;;;;;;;16.20;99.90;;;;;;5051672;28;19935;-65
2022/07/11 07:14:41;;;;;;;;;;;16.30;99.90;;;;;;5036265;28;20394;-65
2022/07/11 07:17:06;;;;;;;;;;;16.30;99.90;;;;;;5044871;28;19912;-66
2022/07/11 07:19:32;;;;;;;;;;;16.40;99.90;;;;;;5052589;28;19908;-67
2022/07/11 07:21:57;;;;;;;;;;;16.40;99.90;;;;;;5053302;28;20007;-66
2022/07/11 07:24:23;;;;;;;;;;;16.70;99.90;;;;;;5053525;28;19913;-66
2022/07/11 07:26:48;;;;;;;;;;;16.80;99.90;;;;;;5035361;28;20382;-66
2022/07/11 07:29:14;;;;;;;;;;;17.20;99.90;;;;;;5053547;28;19916;-66
2022/07/11 07:31:42;;;;;;;;;;;17.50;99.90;;;;;;5054182;28;19916;-66
2022/07/11 07:34:09;;;;;;;;;;;17.70;99.90;;;;;;5054704;28;19991;-66
2022/07/11 07:36:35;;;;;;;;;;;18.20;99.90;;;;;;5065766;28;19919;-66
2022/07/11 07:39:00;;;;;;;;;;;18.40;99.90;;;;;;5053809;28;19912;-66
2022/07/11 07:41:27;;;;;;;;;;;18.70;99.90;;;;;;5072283;28;19912;-66
2022/07/11 07:43:52;;;;;;;;;;;18.80;99.90;;;;;;5072144;28;19909;-67
2022/07/11 07:46:18;;;;;;;;;;;18.70;99.90;;;;;;5072445;28;19934;-67
2022/07/11 07:48:43;;;;;;;;;;;18.70;99.90;;;;;;5072202;28;20347;-66
2022/07/11 07:51:09;;;;;;;;;;;18.60;99.90;;;;;;5072030;28;20431;-67
2022/07/11 07:53:35;;;;;;;;;;;18.50;99.90;;;;;;5072089;28;20370;-66
2022/07/11 07:56:00;;;;;;;;;;;18.40;99.90;;;;;;5072108;28;19915;-67
2022/07/11 07:58:26;;;;;;;;;;;18.50;99.90;;;;;;5067304;28;20313;-67
2022/07/11 08:03:37;;;;;;;;;;;18.30;99.90;;;;;;5055492;28;19920;-66
2022/07/11 08:06:02;;;;;;;;;;;18.30;99.90;;;;;;5055744;28;19912;-66
2022/07/11 08:08:28;;;;;;;;;;;18.30;99.90;;;;;;5055392;28;19912;-67
2022/07/11 08:10:54;;;;;;;;;;;18.20;99.90;;;;;;5055714;28;19920;-67
2022/07/11 08:13:19;;;;;;;;;;;18.10;99.90;;;;;;5055553;28;19916;-67
2022/07/11 08:15:46;;;;;;;;;;;17.90;99.90;;;;;;5055800;28;19920;-66
2022/07/11 08:18:11;;;;;;;;;;;17.90;99.90;;;;;;5055903;28;20397;-67
2022/07/11 08:20:37;;;;;;;;;;;17.90;99.90;;;;;;5055176;28;19909;-66
2022/07/11 08:23:03;;;;;;;;;;;18.00;99.90;;;;;;5055472;28;19958;-67
2022/07/11 08:25:29;;;;;;;;;;;17.90;99.90;;;;;;5055675;28;19909;-67
2022/07/11 08:27:55;;;;;;;;;;;17.70;99.90;;;;;;5055190;28;19909;-67
2022/07/11 08:30:21;;;;;;;;;;;17.80;99.90;;;;;;5055500;28;19909;-67
2022/07/11 08:32:46;;;;;;;;;;;17.70;99.90;;;;;;5055054;28;20299;-66
2022/07/11 08:35:14;;;;;;;;;;;17.80;99.90;;;;;;5055462;28;19948;-66
2022/07/11 08:37:39;;;;;;;;;;;17.70;99.90;;;;;;5056405;28;19927;-66
2022/07/11 08:40:05;;;;;;;;;;;17.60;99.90;;;;;;5056646;28;20314;-66
2022/07/11 08:42:30;;;;;;;;;;;17.70;99.90;;;;;;5073892;28;19908;-67
2022/07/11 08:44:57;;;;;;;;;;;17.80;99.90;;;;;;5060617;28;19924;-66
2022/07/11 08:47:22;;;;;;;;;;;17.80;99.90;;;;;;5047530;28;20348;-66
2022/07/11 08:49:48;;;;;;;;;;;18.00;99.90;;;;;;5034445;28;19956;-66
2022/07/11 08:52:14;;;;;;;;;;;17.90;99.90;;;;;;5039749;28;19916;-66
2022/07/11 08:54:40;;;;;;;;;;;17.90;99.90;;;;;;5050905;28;19913;-66
2022/07/11 08:57:06;;;;;;;;;;;18.10;99.90;;;;;;5048277;28;19920;-66
2022/07/11 08:59:33;;;;;;;;;;;18.10;99.90;;;;;;5054737;28;20256;-67
2022/07/11 09:02:01;;;;;;;;;;;18.60;99.90;;;;;;5036783;28;19916;-67
2022/07/11 09:04:28;;;;;;;;;;;18.80;99.90;;;;;;5052617;28;19913;-67
2022/07/11 09:06:58;;;;;;;;;;;18.80;99.90;;;;;;5036952;28;19913;-66
2022/07/11 09:09:24;;;;;;;;;;;18.90;99.90;;;;;;5054236;28;19917;-67
2022/07/11 09:11:56;;;;;;;;;;;18.90;99.90;;;;;;5053570;28;19983;-66
2022/07/11 09:14:25;;;;;;;;;;;19.20;99.90;;;;;;5036863;28;19909;-66
2022/07/11 09:17:13;;;;;;;;;;;19.30;99.90;;;;;;5054688;28;19916;-66
2022/07/11 09:19:58;;;;;;;;;;;19.30;99.90;;;;;;5036370;28;19909;-66
2022/07/11 09:25:42;;;;;;;;;;;19.30;99.90;;;;;;5051818;28;19913;-67
2022/07/11 09:28:01;;;;;;;;;;;19.20;99.90;;;;;;5053665;28;19909;-67
2022/07/11 09:30:39;;;;;;;;;;;19.10;99.90;;;;;;5054122;28;19909;-67
2022/07/11 09:33:05;;;;;;;;;;;18.80;99.90;;;;;;5054375;28;20278;-67
2022/07/11 09:35:35;;;;;;;;;;;18.60;99.90;;;;;;5053876;28;20357;-67
2022/07/11 09:38:03;;;;;;;;;;;18.50;99.90;;;;;;5054006;28;20284;-67
2022/07/11 09:40:28;;;;;;;;;;;18.30;99.90;;;;;;5054226;28;20376;-66
2022/07/11 09:42:55;;;;;;;;;;;18.10;99.90;;;;;;5053178;28;19963;-66
2022/07/11 09:45:25;;;;;;;;;;;17.90;99.90;;;;;;5054167;28;20279;-67
2022/07/11 09:48:11;;;;;;;;;;;17.80;99.90;;;;;;5053939;28;19916;-66
2022/07/11 09:50:42;;;;;;;;;;;17.80;99.90;;;;;;5053330;28;20394;-66
2022/07/11 09:53:10;;;;;;;;;;;17.60;99.90;;;;;;5053559;28;20314;-66
2022/07/11 09:55:38;;;;;;;;;;;17.50;99.90;;;;;;5053338;28;19913;-66
2022/07/11 09:58:05;;;;;;;;;;;17.60;99.90;;;;;;5051767;28;19951;-66
2022/07/11 10:00:33;;;;;;;;;;;17.50;99.90;;;;;;5037100;28;20011;-66
2022/07/11 10:03:02;;;;;;;;;;;17.40;99.90;;;;;;5052669;28;19959;-66
2022/07/11 10:05:36;;;;;;;;;;;17.50;99.90;;;;;;5050341;28;20369;-66
2022/07/11 10:08:18;;;;;;;;;;;17.80;99.90;;;;;;5052689;28;20007;-66
2022/07/11 10:10:45;;;;;;;;;;;17.90;99.90;;;;;;5052314;28;20215;-66
2022/07/11 10:13:10;;;;;;;;;;;18.10;99.90;;;;;;5052633;28;19963;-65
2022/07/11 10:15:37;;;;;;;;;;;18.50;99.90;;;;;;5053348;28;20331;-65
2022/07/11 10:18:05;;;;;;;;;;;18.70;99.90;;;;;;5035073;28;19916;-65
2022/07/11 10:20:33;;;;;;;;;;;18.80;99.90;;;;;;5052056;28;19983;-65
2022/07/11 10:23:05;;;;;;;;;;;18.80;99.90;;;;;;5033511;28;19959;-66
2022/07/11 10:25:35;;;;;;;;;;;18.70;99.90;;;;;;5034187;28;19913;-66
2022/07/11 10:28:06;;;;;;;;;;;18.40;99.90;;;;;;5051813;28;20003;-65
2022/07/11 10:30:47;;;;;;;;;;;18.40;99.90;;;;;;5052842;28;19909;-65
2022/07/11 10:33:14;;;;;;;;;;;18.40;99.90;;;;;;5052827;28;19959;-65
2022/07/11 10:35:41;;;;;;;;;;;18.30;99.90;;;;;;5050619;28;19913;-65
2022/07/11 10:38:07;;;;;;;;;;;18.30;99.90;;;;;;5046069;28;19936;-65
2022/07/11 10:40:40;;;;;;;;;;;18.20;99.90;;;;;;5052122;28;20328;-66
2022/07/11 10:43:05;;;;;;;;;;;18.30;99.90;;;;;;5053792;28;20416;-66
2022/07/11 10:45:48;;;;;;;;;;;18.50;99.90;;;;;;5035998;28;20004;-66
2022/07/11 10:48:13;;;;;;;;;;;18.70;99.90;;;;;;5053716;28;19959;-66
2022/07/11 10:50:40;;;;;;;;;;;19.00;99.90;;;;;;5052594;28;19960;-66
2022/07/11 10:53:09;;;;;;;;;;;19.10;99.90;;;;;;5049874;28;19917;-66
2022/07/11 10:55:40;;;;;;;;;;;19.40;99.90;;;;;;5047405;28;22240;-66
2022/07/11 10:58:25;;;;;;;;;;;19.80;99.90;;;;;;5053463;28;19916;-66
2022/07/11 11:01:11;;;;;;;;;;;20.70;99.90;;;;;;5053467;28;19908;-66
2022/07/11 11:03:41;;;;;;;;;;;21.00;99.90;;;;;;5052113;28;19913;-67
2022/07/11 11:06:09;;;;;;;;;;;21.70;99.90;;;;;;5048806;28;20328;-67
2022/07/11 11:08:43;;;;;;;;;;;21.70;99.90;;;;;;5034469;28;19917;-67
2022/07/11 11:14:25;;;;;;;;;;;21.50;99.90;;;;;;5090840;27;19916;-65
2022/07/11 11:16:54;;;;;;;;;;;21.00;99.90;;;;;;5090912;28;19923;-66
2022/07/11 11:19:39;;;;;;;;;;;21.20;99.90;;;;;;5091103;28;20380;-65
2022/07/11 11:22:11;;;;;;;;;;;20.90;99.90;;;;;;5088559;28;19931;-66
2022/07/11 11:24:37;;;;;;;;;;;21.10;99.90;;;;;;5085754;28;19912;-66
2022/07/11 11:27:03;;;;;;;;;;;21.10;99.90;;;;;;5076968;28;20011;-65
2022/07/11 11:29:29;;;;;;;;;;;21.60;99.90;;;;;;5070646;28;20442;-66
2022/07/11 11:31:56;;;;;;;;;;;21.70;99.90;;;;;;5070459;28;20003;-66
2022/07/11 11:34:22;;;;;;;;;;;22.00;99.90;;;;;;5070731;28;19909;-66
2022/07/11 11:36:56;;;;;;;;;;;22.40;99.90;;;;;;5070518;28;19909;-66
2022/07/11 11:39:39;;;;;;;;;;;22.40;99.90;;;;;;5070319;28;19908;-66
2022/07/11 11:42:07;;;;;;;;;;;22.50;99.90;;;;;;5070598;28;19908;-66
2022/07/11 11:44:33;;;;;;;;;;;22.10;99.90;;;;;;5070271;28;19908;-66
2022/07/11 11:46:59;;;;;;;;;;;22.20;99.90;;;;;;5070248;28;19908;-66
2022/07/11 11:49:25;;;;;;;;;;;22.50;99.90;;;;;;5070113;28;19908;-66
2022/07/11 11:51:53;;;;;;;;;;;22.90;99.90;;;;;;5069776;28;20007;-66
2022/07/11 11:54:23;;;;;;;;;;;22.90;99.90;;;;;;5069995;28;19912;-66
2022/07/11 11:56:48;;;;;;;;;;;22.80;99.90;;;;;;5070077;28;19915;-66
2022/07/11 11:59:15;;;;;;;;;;;22.40;99.90;;;;;;5068785;28;20015;-65
2022/07/11 12:01:43;;;;;;;;;;;22.30;99.90;;;;;;5070046;28;20267;-65
2022/07/11 12:04:10;;;;;;;;;;;22.40;99.90;;;;;;5069671;28;19915;-66
2022/07/11 12:06:36;;;;;;;;;;;22.40;99.90;;;;;;5070082;28;19915;-66
2022/07/11 12:09:04;;;;;;;;;;;22.20;99.90;;;;;;5069961;28;19916;-66
2022/07/11 12:11:30;;;;;;;;;;;22.40;99.90;;;;;;5069790;28;19909;-66
2022/07/11 12:13:56;;;;;;;;;;;22.10;99.90;;;;;;5089060;28;20500;-67
2022/07/11 12:16:53;;;;;;;;;;;21.70;99.90;;;;;;5089837;28;19953;-66
2022/07/11 12:19:09;;;;;;;;;;;21.50;99.90;;;;;;5105066;28;19939;-66
2022/07/11 12:21:35;;;;;;;;;;;21.70;99.90;;;;;;5123441;28;19912;-66
2022/07/11 12:24:03;;;;;;;;;;;21.80;99.90;;;;;;5113833;28;20339;-66
2022/07/11 12:26:30;;;;;;;;;;;22.20;99.90;;;;;;5103021;28;19908;-66
2022/07/11 12:29:11;;;;;;;;;;;22.50;99.90;;;;;;5082044;28;20002;-66
2022/07/11 12:31:57;;;;;;;;;;;21.70;99.90;;;;;;5108913;28;19908;-66
2022/07/11 12:34:27;;;;;;;;;;;21.80;99.90;;;;;;5103431;28;19908;-65
2022/07/11 12:37:01;;;;;;;;;;;22.30;99.90;;;;;;5099790;28;19914;-65
2022/07/11 12:39:28;;;;;;;;;;;22.80;99.90;;;;;;5110528;28;20282;-66
2022/07/11 12:41:55;;;;;;;;;;;23.10;99.90;;;;;;5105679;28;20468;-66
2022/07/11 12:47:07;;;;;;;;;;;23.20;99.90;;;;;;5112904;28;19909;-67
2022/07/11 12:49:33;;;;;;;;;;;23.30;99.90;;;;;;5102779;28;19915;-66
2022/07/11 12:52:00;;;;;;;;;;;23.30;99.90;;;;;;5105476;28;19918;-66
2022/07/11 12:54:33;;;;;;;;;;;23.50;99.90;;;;;;5091400;28;19907;-66
2022/07/11 12:57:01;;;;;;;;;;;23.70;99.90;;;;;;5079149;28;19916;-67
2022/07/11 12:59:27;;;;;;;;;;;24.00;99.90;;;;;;5095873;28;19908;-66
2022/07/11 13:01:54;;;;;;;;;;;24.00;99.90;;;;;;5108853;28;20333;-66
2022/07/11 13:04:39;;;;;;;;;;;23.90;99.90;;;;;;5099121;28;19908;-67
2022/07/11 13:10:13;;;;;;;;;;;23.30;99.90;;;;;;5094337;28;19913;-66
2022/07/11 13:12:39;;;;;;;;;;;23.30;99.90;;;;;;5104330;28;20302;-66
2022/07/11 13:15:09;;;;;;;;;;;23.30;99.90;;;;;;5074246;28;19942;-66
2022/07/11 13:17:35;;;;;;;;;;;23.30;99.90;;;;;;5095693;28;19912;-65
2022/07/11 13:20:01;;;;;;;;;;;22.80;99.90;;;;;;5095362;28;19908;-65
2022/07/11 13:22:26;;;;;;;;;;;22.40;99.90;;;;;;5095221;28;19908;-66
2022/07/11 13:24:52;;;;;;;;;;;22.40;99.90;;;;;;5097741;28;20023;-66
2022/07/11 13:27:17;;;;;;;;;;;22.40;99.90;;;;;;5106377;28;19912;-66
2022/07/11 13:29:43;;;;;;;;;;;22.40;99.90;;;;;;5092060;28;19912;-66
2022/07/11 13:32:08;;;;;;;;;;;22.60;99.90;;;;;;5100364;28;19960;-65
2022/07/11 13:34:34;;;;;;;;;;;22.40;99.90;;;;;;5109187;28;20393;-66
2022/07/11 13:36:59;;;;;;;;;;;22.20;99.90;;;;;;5095507;28;20027;-66
2022/07/11 13:39:25;;;;;;;;;;;21.80;99.90;;;;;;5096172;28;19926;-66
2022/07/11 13:41:50;;;;;;;;;;;21.90;99.90;;;;;;5098788;28;20413;-66
2022/07/11 13:44:16;;;;;;;;;;;21.90;99.90;;;;;;5113182;28;19908;-66
2022/07/11 13:46:41;;;;;;;;;;;22.00;99.90;;;;;;5081450;28;20397;-67
2022/07/11 13:49:07;;;;;;;;;;;22.20;99.90;;;;;;5087278;28;20014;-66
2022/07/11 13:51:32;;;;;;;;;;;22.30;99.90;;;;;;5111216;28;20499;-66
2022/07/11 13:53:58;;;;;;;;;;;22.30;99.90;;;;;;5098985;28;19912;-66
2022/07/11 13:56:23;;;;;;;;;;;22.40;99.90;;;;;;5106969;28;19973;-66
2022/07/11 13:58:49;;;;;;;;;;;22.40;99.90;;;;;;5106300;28;20388;-66
2022/07/11 14:01:14;;;;;;;;;;;22.40;99.90;;;;;;5099906;28;19965;-66
2022/07/11 14:03:39;;;;;;;;;;;22.50;99.90;;;;;;5110293;28;19907;-66
2022/07/11 14:06:05;;;;;;;;;;;22.70;99.90;;;;;;5097995;28;20474;-67
2022/07/11 14:08:32;;;;;;;;;;;22.70;99.90;;;;;;5092663;28;19916;-66
2022/07/11 14:10:57;;;;;;;;;;;22.70;99.90;;;;;;5088351;28;19913;-66
2022/07/11 14:13:23;;;;;;;;;;;22.70;99.90;;;;;;5095635;28;19974;-66
2022/07/11 14:15:49;;;;;;;;;;;22.70;99.90;;;;;;5097914;28;19919;-66
2022/07/11 14:18:15;;;;;;;;;;;22.50;99.90;;;;;;5094628;28;20365;-66
2022/07/11 14:20:40;;;;;;;;;;;22.40;99.90;;;;;;5094065;28;19957;-67
2022/07/11 14:23:06;;;;;;;;;;;22.40;99.90;;;;;;5075963;28;19994;-66
2022/07/11 14:25:31;;;;;;;;;;;22.60;99.90;;;;;;5087763;28;19977;-66
2022/07/11 14:27:57;;;;;;;;;;;22.70;99.90;;;;;;5114721;28;20462;-66
2022/07/11 14:30:23;;;;;;;;;;;22.50;99.90;;;;;;5114499;28;19985;-66